Portada
METAR-TAF:

METAR-TAF

Aeroports :

Irkutsk, Rússia

latitud: 52-16N, longitud: 104-19E, altitud: 513 m

Observació

L'informe es va fer fa 37 minuts, a les 17:00 UTC
Vent 4 kt del Sud, variant entre Sud/Sud-Est i Sud-Oest
Temperatura -12°C
Humitat 78%
Pressió 1017 hPa
Visibilitat 10 km o més
sense núvols per sota de 1500 mi sense presència de cumulonimbus.

METAR: UIII 291700Z 17002MPS 150V220 CAVOK M12/M15 Q1017 R30/CLRD60 NOSIG RMK QFE718/0957

Hora: 01:37 (17:37 UTC)

Pronòstic

L'informe es va fer fa 37 minuts, a les 17:00 UTC
Pronòstic vàlid del 29 a les 18 UTC al 30 a les 18 UTC
Vent 14 kt del Nord-Oest
Visibilitat: 3100 m
Cel ennuvolat a una alçada de 1100 ft, Cumulonimbus.
xàfecs de neu, torb baixa de neu
Temporalment
l' 29 a les 18 UTC al 30 a les 12 UTC
Vent 23 kt del Nord-Oest
Visibilitat: 0900 m
a una alçada de 300 ft
xàfecs de neu, torb alta de neu

TAF: UIII 291700Z 2918/3018 32007MPS 3100 -SHSN DRSN BKN011CB TEMPO 2918/3012 32012MPS 0900 +SHSN BLSN VV003

Observacions i pronòstics meteorològics de més de 4000 aeroports (METAR i TAF).

Les estacions disponibles són els punts grocs i vermells al mapa.

Posi el ratolí al punt desitjat per veure el nom de l'estació.

Feu clic per veure les observacions i els pronòstics meteorològics.

Per canviar el mapa: feu clic els botons verds amb una creu de color negre per apropar; al botó verd amb un guió per allunyar la imatge; o en les fletxes verdes per a mapes adjacents.


METAR-TAF: